createdAt,value
2018-04-29T00:00:53.021Z,0.00
2018-04-29T00:01:52.994Z,0.00
2018-04-29T00:02:53.010Z,0.00
2018-04-29T00:03:52.989Z,0.00
2018-04-29T00:04:52.994Z,0.00
2018-04-29T00:05:52.991Z,0.00
2018-04-29T00:06:52.996Z,0.00
2018-04-29T00:07:52.999Z,0.00
2018-04-29T00:08:53.014Z,0.00
2018-04-29T00:09:53.012Z,0.00
2018-04-29T00:10:53.004Z,0.00
2018-04-29T00:11:53.011Z,0.00
2018-04-29T00:12:53.696Z,0.00
2018-04-29T00:13:53.013Z,0.00
2018-04-29T00:14:53.020Z,0.00
2018-04-29T00:15:53.033Z,0.00
2018-04-29T00:16:53.019Z,0.00
2018-04-29T00:17:53.038Z,0.00
2018-04-29T00:18:53.031Z,0.00
2018-04-29T00:19:53.027Z,0.00
2018-04-29T00:20:53.032Z,0.00
2018-04-29T00:21:53.031Z,0.00
2018-04-29T00:22:53.043Z,0.00
2018-04-29T00:23:53.059Z,0.00
2018-04-29T00:24:53.055Z,0.00
2018-04-29T00:25:53.074Z,0.00
2018-04-29T00:26:53.050Z,0.00
2018-04-29T00:27:53.045Z,0.00
2018-04-29T00:28:53.052Z,0.00
2018-04-29T00:29:53.072Z,0.00
2018-04-29T00:30:53.075Z,0.00
2018-04-29T00:31:53.062Z,0.00
2018-04-29T00:32:53.113Z,0.00
2018-04-29T00:33:53.077Z,0.00
2018-04-29T00:34:53.080Z,0.00
2018-04-29T00:35:53.086Z,0.00
2018-04-29T00:36:53.096Z,0.00
2018-04-29T00:37:53.073Z,0.00
2018-04-29T00:38:53.088Z,0.00
2018-04-29T00:39:53.114Z,0.00
2018-04-29T00:40:53.086Z,0.00
2018-04-29T00:41:53.078Z,0.00
2018-04-29T00:42:53.084Z,0.00
2018-04-29T00:43:53.093Z,0.00
2018-04-29T00:44:53.093Z,0.00
2018-04-29T00:45:53.097Z,0.00
2018-04-29T00:46:53.102Z,0.00
2018-04-29T00:47:53.103Z,0.00
2018-04-29T00:48:53.710Z,0.00
2018-04-29T00:49:53.111Z,0.00
2018-04-29T00:50:53.136Z,0.00
2018-04-29T00:51:53.110Z,0.00
2018-04-29T00:52:53.115Z,0.00
2018-04-29T00:53:53.148Z,0.00
2018-04-29T00:54:53.206Z,0.00
2018-04-29T00:55:53.118Z,0.00
2018-04-29T00:56:53.124Z,0.00
2018-04-29T00:57:53.127Z,0.00
2018-04-29T00:58:53.132Z,0.00
2018-04-29T00:59:53.149Z,0.00
2018-04-29T01:00:53.132Z,0.00
2018-04-29T01:01:53.142Z,0.00
2018-04-29T01:02:53.155Z,0.00
2018-04-29T01:03:53.141Z,0.00
2018-04-29T01:04:53.162Z,0.00
2018-04-29T01:05:53.189Z,0.00
2018-04-29T01:06:53.246Z,0.00
2018-04-29T01:07:53.162Z,0.00
2018-04-29T01:08:53.178Z,0.00
2018-04-29T01:09:53.148Z,0.00
2018-04-29T01:10:53.159Z,0.00
2018-04-29T01:11:53.161Z,0.00
2018-04-29T01:12:53.164Z,0.00
2018-04-29T01:13:53.176Z,0.00
2018-04-29T01:14:53.180Z,0.00
2018-04-29T01:15:53.193Z,0.00
2018-04-29T01:16:53.181Z,0.00
2018-04-29T01:17:53.179Z,0.00
2018-04-29T01:18:53.215Z,0.00
2018-04-29T01:19:53.188Z,0.00
2018-04-29T01:20:53.181Z,0.00
2018-04-29T01:21:53.202Z,0.00
2018-04-29T01:22:53.191Z,0.00
2018-04-29T01:23:53.198Z,0.00
2018-04-29T01:24:53.191Z,0.00
2018-04-29T01:25:53.212Z,0.00
2018-04-29T01:26:53.197Z,0.00
2018-04-29T01:27:53.199Z,0.00
2018-04-29T01:28:53.200Z,0.00
2018-04-29T01:29:53.205Z,0.00
2018-04-29T01:30:53.212Z,0.00
2018-04-29T01:31:53.205Z,0.00
2018-04-29T01:32:53.235Z,0.00
2018-04-29T01:33:53.222Z,0.00
2018-04-29T01:34:53.223Z,0.00
2018-04-29T01:35:53.218Z,0.00
2018-04-29T01:36:53.224Z,0.00
2018-04-29T01:37:53.224Z,0.00
2018-04-29T01:38:53.231Z,0.00
2018-04-29T01:39:53.248Z,0.00
2018-04-29T01:40:53.240Z,0.00
2018-04-29T01:41:53.229Z,0.00
2018-04-29T01:42:53.727Z,0.00
2018-04-29T01:43:53.239Z,0.00
2018-04-29T01:44:53.233Z,0.00
2018-04-29T01:45:53.240Z,0.00
2018-04-29T01:46:53.249Z,0.00
2018-04-29T01:47:53.240Z,0.00
2018-04-29T01:48:53.267Z,0.00
2018-04-29T01:49:53.247Z,0.00
2018-04-29T01:50:53.253Z,0.00
2018-04-29T01:51:53.248Z,0.00
2018-04-29T01:52:53.251Z,0.00
2018-04-29T01:53:53.258Z,0.00
2018-04-29T01:54:53.265Z,0.00
2018-04-29T01:55:53.266Z,0.00
2018-04-29T01:56:53.257Z,0.00
2018-04-29T01:57:53.286Z,0.00
2018-04-29T01:58:53.269Z,0.00
2018-04-29T01:59:53.277Z,0.00
2018-04-29T02:00:53.419Z,0.00
2018-04-29T02:01:53.283Z,0.00
2018-04-29T02:02:53.279Z,0.00
2018-04-29T02:03:53.312Z,0.00
2018-04-29T02:04:53.280Z,0.00
2018-04-29T02:05:53.289Z,0.00
2018-04-29T02:06:53.309Z,0.00
2018-04-29T02:07:53.299Z,0.00
2018-04-29T02:08:53.292Z,0.00
2018-04-29T02:09:53.299Z,0.00
2018-04-29T02:10:53.301Z,0.00
2018-04-29T02:11:53.310Z,0.00
2018-04-29T02:12:53.314Z,0.00
2018-04-29T02:13:53.414Z,0.00
2018-04-29T02:14:53.309Z,0.00
2018-04-29T02:15:53.313Z,0.00
2018-04-29T02:16:53.388Z,0.00
2018-04-29T02:17:53.340Z,0.00
2018-04-29T02:18:53.318Z,0.00
2018-04-29T02:19:53.316Z,0.00
2018-04-29T02:20:53.313Z,0.00
2018-04-29T02:21:53.320Z,0.00
2018-04-29T02:22:53.325Z,0.00
2018-04-29T02:23:53.420Z,0.00
2018-04-29T02:24:53.341Z,0.00
2018-04-29T02:25:53.341Z,0.00
2018-04-29T02:26:53.343Z,0.00
2018-04-29T02:27:53.345Z,0.00
2018-04-29T02:28:53.330Z,0.00
2018-04-29T02:29:53.337Z,0.00
2018-04-29T02:30:53.343Z,0.00
2018-04-29T02:31:53.344Z,0.00
2018-04-29T02:32:53.341Z,0.00
2018-04-29T02:33:53.351Z,0.00
2018-04-29T02:34:53.390Z,0.00
2018-04-29T02:35:53.354Z,0.00
2018-04-29T02:36:53.376Z,0.00
2018-04-29T02:37:53.352Z,0.00
2018-04-29T02:38:53.365Z,0.00
2018-04-29T02:39:53.409Z,0.00
2018-04-29T02:40:53.370Z,0.00
2018-04-29T02:41:53.369Z,0.00
2018-04-29T02:42:53.367Z,0.00
2018-04-29T02:43:53.378Z,0.00
2018-04-29T02:44:53.443Z,0.00
2018-04-29T02:45:53.463Z,0.00
2018-04-29T02:46:53.385Z,0.00
2018-04-29T02:47:53.416Z,0.00
2018-04-29T02:48:53.398Z,0.00
2018-04-29T02:49:53.375Z,0.00
2018-04-29T02:50:53.382Z,0.00
2018-04-29T02:51:53.404Z,0.00
2018-04-29T02:52:53.402Z,0.00
2018-04-29T02:53:53.381Z,0.00
2018-04-29T02:54:53.382Z,0.00
2018-04-29T02:55:53.412Z,0.00
2018-04-29T02:56:53.396Z,0.00
2018-04-29T02:57:53.403Z,0.00
2018-04-29T02:58:53.390Z,0.00
2018-04-29T02:59:53.394Z,0.00
2018-04-29T03:00:53.407Z,0.00
2018-04-29T03:01:53.430Z,0.00
2018-04-29T03:02:53.405Z,0.00
2018-04-29T03:03:53.419Z,0.00
2018-04-29T03:04:53.412Z,0.00
2018-04-29T03:05:53.425Z,0.00
2018-04-29T03:06:53.425Z,0.00
2018-04-29T03:07:53.427Z,0.00
2018-04-29T03:08:53.413Z,0.00
2018-04-29T03:09:53.433Z,0.00
2018-04-29T03:10:53.435Z,0.00
2018-04-29T03:11:53.456Z,0.00
2018-04-29T03:12:53.418Z,0.00
2018-04-29T03:13:53.426Z,0.00
2018-04-29T03:14:53.421Z,0.00
2018-04-29T03:15:53.430Z,0.00
2018-04-29T03:16:53.439Z,0.00
2018-04-29T03:17:53.442Z,0.00
2018-04-29T03:18:53.440Z,0.00
2018-04-29T03:19:53.445Z,0.00
2018-04-29T03:20:53.441Z,0.00
2018-04-29T03:21:53.434Z,0.00
2018-04-29T03:22:53.435Z,0.00
2018-04-29T03:23:53.453Z,0.00
2018-04-29T03:24:53.463Z,0.00
2018-04-29T03:25:53.452Z,0.00
2018-04-29T03:26:53.457Z,0.00
2018-04-29T03:27:53.454Z,0.00
2018-04-29T03:28:53.476Z,0.00
2018-04-29T03:29:53.460Z,0.00
2018-04-29T03:30:53.485Z,0.00
2018-04-29T03:31:53.458Z,0.00
2018-04-29T03:32:53.459Z,4.00
2018-04-29T03:33:53.454Z,4.00
2018-04-29T03:34:53.467Z,4.00
2018-04-29T03:35:53.467Z,4.00
2018-04-29T03:36:53.465Z,4.00
2018-04-29T03:37:53.474Z,4.00
2018-04-29T03:38:53.509Z,4.00
2018-04-29T03:39:53.482Z,8.00
2018-04-29T03:40:53.474Z,8.00
2018-04-29T03:41:53.487Z,8.00
2018-04-29T03:42:53.482Z,8.00
2018-04-29T03:43:53.473Z,12.00
2018-04-29T03:44:53.484Z,16.00
2018-04-29T03:45:53.487Z,16.00
2018-04-29T03:46:53.522Z,16.00
2018-04-29T03:47:53.519Z,20.00
2018-04-29T03:48:53.536Z,20.00
2018-04-29T03:49:53.501Z,24.00
2018-04-29T03:50:53.498Z,32.00
2018-04-29T03:51:53.489Z,32.00
2018-04-29T03:52:53.516Z,36.00
2018-04-29T03:53:53.502Z,40.00
2018-04-29T03:54:53.500Z,44.00
2018-04-29T03:55:53.509Z,52.00
2018-04-29T03:56:53.500Z,56.00
2018-04-29T03:57:53.516Z,60.00
2018-04-29T03:58:53.536Z,72.00
2018-04-29T03:59:53.498Z,80.00
2018-04-29T04:00:53.508Z,88.00
2018-04-29T04:01:53.520Z,100.00
2018-04-29T04:02:53.521Z,108.00
2018-04-29T04:03:53.513Z,120.00
2018-04-29T04:04:53.508Z,132.00
2018-04-29T04:05:53.532Z,144.00
2018-04-29T04:06:53.510Z,160.00
2018-04-29T04:07:53.517Z,176.00
2018-04-29T04:08:53.520Z,192.00
2018-04-29T04:09:53.519Z,208.00
2018-04-29T04:10:53.526Z,224.00
2018-04-29T04:11:53.532Z,248.00
2018-04-29T04:12:53.526Z,272.00
2018-04-29T04:13:53.528Z,300.00
2018-04-29T04:14:53.539Z,328.00
2018-04-29T04:15:53.525Z,364.00
2018-04-29T04:16:53.530Z,408.00
2018-04-29T04:17:53.541Z,444.00
2018-04-29T04:18:53.529Z,488.00
2018-04-29T04:19:53.541Z,524.00
2018-04-29T04:20:53.537Z,560.00
2018-04-29T04:21:53.535Z,592.00
2018-04-29T04:22:53.564Z,612.00
2018-04-29T04:23:53.544Z,636.00
2018-04-29T04:24:53.567Z,656.00
2018-04-29T04:25:53.560Z,680.00
2018-04-29T04:26:53.549Z,708.00
2018-04-29T04:27:53.552Z,728.00
2018-04-29T04:28:53.576Z,756.00
2018-04-29T04:29:53.549Z,792.00
2018-04-29T04:30:53.566Z,820.00
2018-04-29T04:31:53.561Z,852.00
2018-04-29T04:32:53.577Z,900.00
2018-04-29T04:33:53.563Z,960.00
2018-04-29T04:34:53.573Z,1036.00
2018-04-29T04:35:53.575Z,1116.00
2018-04-29T04:36:53.576Z,1196.00
2018-04-29T04:37:53.570Z,1272.00
2018-04-29T04:38:53.580Z,1348.00
2018-04-29T04:39:54.280Z,1428.00
2018-04-29T04:40:53.583Z,1484.00
2018-04-29T04:41:53.581Z,1520.00
2018-04-29T04:42:53.580Z,1556.00
2018-04-29T04:43:53.588Z,1604.00
2018-04-29T04:44:53.584Z,1624.00
2018-04-29T04:45:53.615Z,1592.00
2018-04-29T04:46:53.581Z,1564.00
2018-04-29T04:47:53.585Z,1540.00
2018-04-29T04:48:53.587Z,1520.00
2018-04-29T04:49:53.615Z,1496.00
2018-04-29T04:50:53.595Z,1480.00
2018-04-29T04:51:53.639Z,1436.00
2018-04-29T04:52:53.704Z,1376.00
2018-04-29T04:53:53.592Z,1332.00
2018-04-29T04:54:53.602Z,1292.00
2018-04-29T04:55:53.608Z,1288.00
2018-04-29T04:56:53.610Z,1292.00
2018-04-29T04:57:53.599Z,1332.00
2018-04-29T04:58:53.626Z,1364.00
2018-04-29T04:59:53.614Z,1364.00
2018-04-29T05:00:53.601Z,1376.00
2018-04-29T05:01:53.610Z,1376.00
2018-04-29T05:02:53.615Z,1380.00
2018-04-29T05:03:53.619Z,1400.00
2018-04-29T05:04:53.620Z,1444.00
2018-04-29T05:05:53.731Z,1480.00
2018-04-29T05:06:53.630Z,1496.00
2018-04-29T05:07:53.646Z,1496.00
2018-04-29T05:08:53.652Z,1488.00
2018-04-29T05:09:53.625Z,1464.00
2018-04-29T05:10:53.653Z,1468.00
2018-04-29T05:11:53.666Z,1488.00
2018-04-29T05:12:53.642Z,1532.00
2018-04-29T05:13:53.636Z,1600.00
2018-04-29T05:14:53.645Z,1656.00
2018-04-29T05:15:53.633Z,1668.00
2018-04-29T05:16:53.653Z,1664.00
2018-04-29T05:17:53.651Z,1648.00
2018-04-29T05:18:53.645Z,1628.00
2018-04-29T05:19:53.636Z,1592.00
2018-04-29T05:20:53.646Z,1592.00
2018-04-29T05:21:53.646Z,1616.00
2018-04-29T05:22:53.648Z,1640.00
2018-04-29T05:23:53.653Z,1656.00
2018-04-29T05:24:53.662Z,1756.00
2018-04-29T05:25:53.653Z,1904.00
2018-04-29T05:26:53.659Z,2368.00
2018-04-29T05:27:53.665Z,2412.00
2018-04-29T05:28:53.721Z,3016.00
2018-04-29T05:29:53.706Z,3340.00
2018-04-29T05:30:53.702Z,2976.00
2018-04-29T05:31:53.669Z,3032.00
2018-04-29T05:32:53.689Z,3224.00
2018-04-29T05:33:53.687Z,3372.00
2018-04-29T05:34:53.691Z,3552.00
2018-04-29T05:35:53.680Z,3924.00
2018-04-29T05:36:53.700Z,4276.00
2018-04-29T05:37:53.717Z,4596.00
2018-04-29T05:38:53.684Z,7132.00
2018-04-29T05:39:53.721Z,5876.00
2018-04-29T05:40:53.717Z,6832.00
2018-04-29T05:41:53.694Z,5924.00
2018-04-29T05:42:53.695Z,5040.00
2018-04-29T05:43:53.770Z,4624.00
2018-04-29T05:44:53.722Z,4396.00
2018-04-29T05:45:53.745Z,4524.00
2018-04-29T05:46:53.765Z,4492.00
2018-04-29T05:47:53.716Z,4332.00
2018-04-29T05:48:53.709Z,4644.00
2018-04-29T05:49:53.807Z,5092.00
2018-04-29T05:50:53.727Z,5492.00
2018-04-29T05:51:53.716Z,5708.00
2018-04-29T05:52:53.710Z,5732.00
2018-04-29T05:53:53.713Z,5576.00
2018-04-29T05:54:53.720Z,5128.00
2018-04-29T05:55:53.727Z,4948.00
2018-04-29T05:56:54.322Z,4980.00
2018-04-29T05:57:53.739Z,5240.00
2018-04-29T05:58:53.748Z,5520.00
2018-04-29T05:59:53.740Z,5952.00
2018-04-29T06:00:53.731Z,6908.00
2018-04-29T06:01:53.747Z,7388.00
2018-04-29T06:02:53.750Z,8024.00
2018-04-29T06:03:53.746Z,8388.00
2018-04-29T06:04:53.754Z,8428.00
2018-04-29T06:05:53.754Z,8524.00
2018-04-29T06:06:53.758Z,8412.00
2018-04-29T06:07:53.762Z,8200.00
2018-04-29T06:08:53.752Z,8352.00
2018-04-29T06:09:53.774Z,7916.00
2018-04-29T06:10:53.790Z,8120.00
2018-04-29T06:11:53.777Z,7960.00
2018-04-29T06:12:53.774Z,10300.00
2018-04-29T06:13:53.783Z,7560.00
2018-04-29T06:14:53.771Z,8480.00
2018-04-29T06:15:53.790Z,5736.00
2018-04-29T06:16:53.793Z,6044.00
2018-04-29T06:17:53.789Z,8244.00
2018-04-29T06:18:53.784Z,8060.00
2018-04-29T06:19:53.795Z,8548.00
2018-04-29T06:20:53.813Z,5844.00
2018-04-29T06:21:53.804Z,5580.00
2018-04-29T06:22:53.809Z,6032.00
2018-04-29T06:23:53.813Z,6364.00
2018-04-29T06:24:53.826Z,7380.00
2018-04-29T06:25:53.882Z,7632.00
2018-04-29T06:26:53.824Z,7836.00
2018-04-29T06:27:53.840Z,9172.00
2018-04-29T06:28:53.840Z,10652.00
2018-04-29T06:29:53.830Z,11096.00
2018-04-29T06:30:53.836Z,10704.00
2018-04-29T06:31:53.885Z,10640.00
2018-04-29T06:32:53.840Z,11660.00
2018-04-29T06:33:53.862Z,11696.00
2018-04-29T06:34:53.859Z,8264.00
2018-04-29T06:35:53.885Z,6952.00
2018-04-29T06:36:53.861Z,7452.00
2018-04-29T06:37:53.862Z,8996.00
2018-04-29T06:38:53.893Z,10160.00
2018-04-29T06:39:53.885Z,12440.00
2018-04-29T06:40:53.896Z,11448.00
2018-04-29T06:41:53.887Z,11888.00
2018-04-29T06:42:53.892Z,12328.00
2018-04-29T06:43:53.902Z,12876.00
2018-04-29T06:44:53.912Z,11644.00
2018-04-29T06:45:53.896Z,10620.00
2018-04-29T06:46:54.013Z,10008.00
2018-04-29T06:47:53.972Z,12620.00
2018-04-29T06:48:53.980Z,11624.00
2018-04-29T06:49:53.965Z,11600.00
2018-04-29T06:50:54.819Z,10176.00
2018-04-29T06:51:53.951Z,6976.00
2018-04-29T06:52:53.958Z,6172.00
2018-04-29T06:53:53.960Z,11656.00
2018-04-29T06:54:53.958Z,8140.00
2018-04-29T06:55:53.962Z,12700.00
2018-04-29T06:56:53.964Z,12788.00
2018-04-29T06:57:53.972Z,11328.00
2018-04-29T06:58:53.971Z,10436.00
2018-04-29T06:59:53.991Z,11452.00
2018-04-29T07:00:54.016Z,9660.00
2018-04-29T07:01:53.985Z,10008.00
2018-04-29T07:02:53.996Z,10284.00
2018-04-29T07:03:54.020Z,10436.00
2018-04-29T07:04:54.004Z,10792.00
2018-04-29T07:05:54.016Z,11836.00
2018-04-29T07:06:54.024Z,10172.00
2018-04-29T07:07:54.026Z,9240.00
2018-04-29T07:08:54.038Z,7692.00
2018-04-29T07:09:54.033Z,6684.00
2018-04-29T07:10:54.049Z,6388.00
2018-04-29T07:11:54.055Z,6036.00
2018-04-29T07:12:54.055Z,5816.00
2018-04-29T07:13:54.056Z,6720.00
2018-04-29T07:14:54.060Z,5428.00
2018-04-29T07:15:54.073Z,15356.00
2018-04-29T07:16:54.079Z,15336.00
2018-04-29T07:17:54.073Z,15516.00
2018-04-29T07:18:54.204Z,15684.00
2018-04-29T07:19:54.093Z,15932.00
2018-04-29T07:20:54.110Z,16100.00
2018-04-29T07:21:54.106Z,13880.00
2018-04-29T07:22:54.111Z,13060.00
2018-04-29T07:23:54.119Z,17696.00
2018-04-29T07:24:54.128Z,18656.00
2018-04-29T07:25:54.136Z,20480.00
2018-04-29T07:26:54.139Z,20000.00
2018-04-29T07:27:54.141Z,18144.00
2018-04-29T07:28:54.162Z,16020.00
2018-04-29T07:29:54.167Z,15192.00
2018-04-29T07:30:54.165Z,15616.00
2018-04-29T07:31:54.174Z,14860.00
2018-04-29T07:32:54.175Z,8332.00
2018-04-29T07:33:54.179Z,7468.00
2018-04-29T07:34:54.199Z,7168.00
2018-04-29T07:35:54.199Z,6712.00
2018-04-29T07:36:54.209Z,6444.00
2018-04-29T07:37:54.230Z,6432.00
2018-04-29T07:38:54.229Z,6540.00
2018-04-29T07:39:54.293Z,6644.00
2018-04-29T07:40:54.241Z,7232.00
2018-04-29T07:41:54.339Z,8420.00
2018-04-29T07:42:54.256Z,9596.00
2018-04-29T07:43:54.282Z,12240.00
2018-04-29T07:44:54.268Z,9464.00
2018-04-29T07:45:54.276Z,8200.00
2018-04-29T07:46:54.300Z,6420.00
2018-04-29T07:47:54.286Z,4848.00
2018-04-29T07:48:54.344Z,3908.00
2018-04-29T07:49:54.308Z,3316.00
2018-04-29T07:50:54.314Z,3004.00
2018-04-29T07:51:54.851Z,2888.00
2018-04-29T07:52:54.326Z,2912.00
2018-04-29T07:53:54.339Z,3092.00
2018-04-29T07:54:54.324Z,3440.00
2018-04-29T07:55:54.336Z,3824.00
2018-04-29T07:56:54.340Z,4184.00
2018-04-29T07:57:54.340Z,4428.00
2018-04-29T07:58:54.351Z,4672.00
2018-04-29T07:59:54.347Z,4776.00
2018-04-29T08:00:54.356Z,4756.00
2018-04-29T08:01:54.366Z,4668.00
2018-04-29T08:02:54.358Z,4572.00
2018-04-29T08:03:54.382Z,4564.00
2018-04-29T08:04:54.384Z,4708.00
2018-04-29T08:05:54.389Z,4960.00
2018-04-29T08:06:54.389Z,5180.00
2018-04-29T08:07:54.392Z,5268.00
2018-04-29T08:08:54.406Z,5296.00
2018-04-29T08:09:55.362Z,5184.00
2018-04-29T08:10:54.396Z,5008.00
2018-04-29T08:11:54.408Z,4836.00
2018-04-29T08:12:54.409Z,4724.00
2018-04-29T08:13:54.413Z,4532.00
2018-04-29T08:14:54.436Z,3992.00
2018-04-29T08:15:54.426Z,3232.00
2018-04-29T08:16:54.439Z,2632.00
2018-04-29T08:17:54.420Z,2472.00
2018-04-29T08:18:54.439Z,2496.00
2018-04-29T08:19:54.451Z,2448.00
2018-04-29T08:20:54.428Z,2344.00
2018-04-29T08:21:54.435Z,2372.00
2018-04-29T08:22:54.448Z,2428.00
2018-04-29T08:23:54.448Z,2484.00
2018-04-29T08:24:54.441Z,2564.00
2018-04-29T08:25:54.450Z,2648.00
2018-04-29T08:26:54.452Z,2684.00
2018-04-29T08:27:54.464Z,2632.00
2018-04-29T08:28:54.464Z,2536.00
2018-04-29T08:29:54.472Z,2476.00
2018-04-29T08:30:54.471Z,2600.00
2018-04-29T08:31:54.478Z,3000.00
2018-04-29T08:32:54.475Z,3504.00
2018-04-29T08:33:54.487Z,3680.00
2018-04-29T08:34:54.495Z,3600.00
2018-04-29T08:35:54.489Z,3656.00
2018-04-29T08:36:54.510Z,3920.00
2018-04-29T08:37:54.496Z,4148.00
2018-04-29T08:38:54.516Z,4368.00
2018-04-29T08:39:54.496Z,4608.00
2018-04-29T08:40:54.497Z,4776.00
2018-04-29T08:41:54.598Z,4728.00
2018-04-29T08:42:54.652Z,4456.00
2018-04-29T08:43:54.520Z,4056.00
2018-04-29T08:44:54.520Z,3472.00
2018-04-29T08:45:54.519Z,2980.00
2018-04-29T08:46:54.575Z,2832.00
2018-04-29T08:47:54.564Z,2972.00
2018-04-29T08:48:54.584Z,3192.00
2018-04-29T08:49:54.538Z,3628.00
2018-04-29T08:50:54.528Z,4460.00
2018-04-29T08:51:54.537Z,5628.00
2018-04-29T08:52:54.539Z,7896.00
2018-04-29T08:53:54.553Z,17952.00
2018-04-29T08:54:54.576Z,35584.00
2018-04-29T08:55:54.617Z,42752.00
2018-04-29T08:56:54.543Z,31232.00
2018-04-29T08:57:54.547Z,23232.00
2018-04-29T08:58:54.551Z,14236.00
2018-04-29T08:59:54.591Z,10116.00
2018-04-29T09:00:54.644Z,7824.00
2018-04-29T09:01:54.575Z,6936.00
2018-04-29T09:02:54.578Z,6428.00
2018-04-29T09:03:54.763Z,5824.00
2018-04-29T09:04:54.608Z,5052.00
2018-04-29T09:05:54.582Z,4716.00
2018-04-29T09:06:54.619Z,4936.00
2018-04-29T09:07:54.626Z,5144.00
2018-04-29T09:08:54.619Z,5592.00
2018-04-29T09:09:54.642Z,6848.00
2018-04-29T09:10:54.626Z,7480.00
2018-04-29T09:11:54.617Z,6900.00
2018-04-29T09:12:54.624Z,6124.00
2018-04-29T09:13:54.608Z,5788.00
2018-04-29T09:14:54.615Z,5388.00
2018-04-29T09:15:54.639Z,4384.00
2018-04-29T09:16:54.652Z,3552.00
2018-04-29T09:17:54.636Z,3720.00
2018-04-29T09:18:54.638Z,4384.00
2018-04-29T09:19:54.639Z,4804.00
2018-04-29T09:20:54.661Z,4696.00
2018-04-29T09:21:54.662Z,4300.00
2018-04-29T09:22:54.652Z,4340.00
2018-04-29T09:23:54.649Z,5076.00
2018-04-29T09:24:54.653Z,5348.00
2018-04-29T09:25:54.652Z,5016.00
2018-04-29T09:26:54.656Z,4876.00
2018-04-29T09:27:54.669Z,5416.00
2018-04-29T09:28:54.658Z,5860.00
2018-04-29T09:29:54.685Z,5420.00
2018-04-29T09:30:54.708Z,4932.00
2018-04-29T09:31:54.671Z,5036.00
2018-04-29T09:32:54.673Z,5328.00
2018-04-29T09:33:54.681Z,5468.00
2018-04-29T09:34:54.688Z,5708.00
2018-04-29T09:35:54.688Z,6396.00
2018-04-29T09:36:54.707Z,7276.00
2018-04-29T09:37:54.742Z,7592.00
2018-04-29T09:38:54.699Z,6676.00
2018-04-29T09:39:54.704Z,5928.00
2018-04-29T09:40:54.711Z,5528.00
2018-04-29T09:41:54.715Z,5356.00
2018-04-29T09:42:54.711Z,4808.00
2018-04-29T09:43:54.724Z,4072.00
2018-04-29T09:44:54.712Z,3464.00
2018-04-29T09:45:54.723Z,3100.00
2018-04-29T09:46:54.724Z,2860.00
2018-04-29T09:47:54.748Z,2708.00
2018-04-29T09:48:54.727Z,2656.00
2018-04-29T09:49:54.742Z,2712.00
2018-04-29T09:50:54.735Z,2528.00
2018-04-29T09:51:54.761Z,2032.00
2018-04-29T09:52:54.739Z,1644.00
2018-04-29T09:53:54.780Z,1388.00
2018-04-29T09:54:54.754Z,1140.00
2018-04-29T09:55:54.755Z,1116.00
2018-04-29T09:56:54.756Z,1372.00
2018-04-29T09:57:54.761Z,1836.00
2018-04-29T09:58:54.763Z,2132.00
2018-04-29T09:59:54.771Z,2364.00
2018-04-29T10:00:54.789Z,2756.00
2018-04-29T10:01:54.777Z,3248.00
2018-04-29T10:02:54.765Z,3672.00
2018-04-29T10:03:54.772Z,4048.00
2018-04-29T10:04:55.403Z,4424.00
2018-04-29T10:05:54.784Z,4820.00
2018-04-29T10:06:54.780Z,5208.00
2018-04-29T10:07:54.790Z,5604.00
2018-04-29T10:08:54.807Z,5904.00
2018-04-29T10:09:54.805Z,6088.00
2018-04-29T10:10:54.797Z,6508.00
2018-04-29T10:11:54.830Z,7172.00
2018-04-29T10:12:54.818Z,8200.00
2018-04-29T10:13:54.820Z,9200.00
2018-04-29T10:14:54.832Z,8944.00
2018-04-29T10:15:54.816Z,8316.00
2018-04-29T10:16:54.815Z,7196.00
2018-04-29T10:17:55.412Z,6024.00
2018-04-29T10:18:54.837Z,5272.00
2018-04-29T10:19:54.835Z,5348.00
2018-04-29T10:20:54.825Z,6472.00
2018-04-29T10:21:54.851Z,8544.00
2018-04-29T10:22:54.840Z,9464.00
2018-04-29T10:23:54.845Z,8248.00
2018-04-29T10:24:54.846Z,8140.00
2018-04-29T10:25:54.857Z,9480.00
2018-04-29T10:26:54.851Z,15492.00
2018-04-29T10:27:54.851Z,15052.00
2018-04-29T10:28:54.860Z,11868.00
2018-04-29T10:29:54.870Z,10932.00
2018-04-29T10:30:54.930Z,10600.00
2018-04-29T10:31:54.854Z,9904.00
2018-04-29T10:32:54.874Z,9636.00
2018-04-29T10:33:54.881Z,10020.00
2018-04-29T10:34:54.877Z,11076.00
2018-04-29T10:35:54.889Z,11888.00
2018-04-29T10:36:54.886Z,12448.00
2018-04-29T10:37:54.895Z,12948.00
2018-04-29T10:38:54.894Z,14228.00
2018-04-29T10:39:54.909Z,17344.00
2018-04-29T10:40:54.908Z,37024.00
2018-04-29T10:41:54.915Z,37792.00
2018-04-29T10:42:54.909Z,63680.00
2018-04-29T10:43:54.929Z,41440.00
2018-04-29T10:44:54.928Z,73440.00
2018-04-29T10:45:54.925Z,69120.00
2018-04-29T10:46:54.943Z,54944.00
2018-04-29T10:47:54.942Z,39520.00
2018-04-29T10:48:54.947Z,52064.00
2018-04-29T10:49:54.952Z,54144.00
2018-04-29T10:50:54.974Z,51232.00
2018-04-29T10:51:54.963Z,28096.00
2018-04-29T10:52:54.964Z,18720.00
2018-04-29T10:53:54.972Z,15520.00
2018-04-29T10:54:54.973Z,13852.00
2018-04-29T10:55:55.040Z,12544.00
2018-04-29T10:56:54.998Z,12572.00
2018-04-29T10:57:55.000Z,13552.00
2018-04-29T10:58:55.008Z,14696.00
2018-04-29T10:59:55.019Z,15288.00
2018-04-29T11:00:55.017Z,15356.00
2018-04-29T11:01:55.014Z,15272.00
2018-04-29T11:02:55.930Z,16448.00
2018-04-29T11:03:55.037Z,18464.00
2018-04-29T11:04:55.044Z,20192.00
2018-04-29T11:05:55.051Z,19168.00
2018-04-29T11:06:55.059Z,19360.00
2018-04-29T11:07:55.063Z,16960.00
2018-04-29T11:08:55.068Z,16672.00
2018-04-29T11:09:55.082Z,16432.00
2018-04-29T11:10:55.086Z,15716.00
2018-04-29T11:11:55.100Z,13932.00
2018-04-29T11:12:55.091Z,11912.00
2018-04-29T11:13:55.107Z,10744.00
2018-04-29T11:14:55.148Z,10396.00
2018-04-29T11:15:55.120Z,10944.00
2018-04-29T11:16:55.129Z,11976.00
2018-04-29T11:17:55.130Z,12368.00
2018-04-29T11:18:55.143Z,12248.00
2018-04-29T11:19:55.143Z,12676.00
2018-04-29T11:20:55.148Z,12688.00
2018-04-29T11:21:55.166Z,12012.00
2018-04-29T11:22:55.164Z,12156.00
2018-04-29T11:23:55.172Z,13420.00
2018-04-29T11:24:55.169Z,14560.00
2018-04-29T11:25:55.164Z,15988.00
2018-04-29T11:26:55.190Z,16348.00
2018-04-29T11:27:55.203Z,13832.00
2018-04-29T11:28:55.211Z,11088.00
2018-04-29T11:29:55.213Z,9604.00
2018-04-29T11:30:55.231Z,8428.00
2018-04-29T11:32:17.953Z,8072.00
2018-04-29T11:32:55.200Z,8368.00
2018-04-29T11:33:55.998Z,8904.00
2018-04-29T11:36:39.912Z,9940.00
2018-04-29T11:37:27.363Z,10256.00
2018-04-29T11:38:27.338Z,10712.00
2018-04-29T11:39:27.353Z,11260.00
2018-04-29T11:40:27.365Z,11664.00
2018-04-29T11:43:15.586Z,12464.00
2018-04-29T11:43:59.462Z,13332.00
2018-04-29T11:44:59.466Z,13740.00
2018-04-29T11:45:59.623Z,14104.00
2018-04-29T11:46:59.476Z,13628.00
2018-04-29T11:47:59.560Z,12536.00
2018-04-29T11:48:59.493Z,11476.00
2018-04-29T11:49:59.535Z,11212.00
2018-04-29T11:50:59.509Z,11364.00
2018-04-29T11:51:59.501Z,11340.00
2018-04-29T11:52:59.507Z,11240.00
2018-04-29T11:53:59.528Z,11012.00
2018-04-29T11:54:59.531Z,10944.00
2018-04-29T11:55:59.520Z,11164.00
2018-04-29T11:56:59.534Z,11704.00
2018-04-29T11:57:59.542Z,11876.00
2018-04-29T11:58:59.539Z,12088.00
2018-04-29T11:59:59.563Z,12420.00
2018-04-29T12:00:59.606Z,12452.00
2018-04-29T12:01:59.604Z,12600.00
2018-04-29T12:02:59.563Z,12440.00
2018-04-29T12:03:59.557Z,11808.00
2018-04-29T12:04:59.587Z,11128.00
2018-04-29T12:05:59.575Z,10168.00
2018-04-29T12:06:59.625Z,9504.00
2018-04-29T12:07:59.615Z,8992.00
2018-04-29T12:08:59.589Z,8552.00
2018-04-29T12:09:59.599Z,8320.00
2018-04-29T12:10:59.597Z,8552.00
2018-04-29T12:11:59.605Z,9012.00
2018-04-29T12:12:59.617Z,9088.00
2018-04-29T12:13:59.622Z,9160.00
2018-04-29T12:14:59.621Z,10252.00
2018-04-29T12:15:59.635Z,11412.00
2018-04-29T12:16:59.630Z,11656.00
2018-04-29T12:17:59.641Z,11084.00
2018-04-29T12:18:59.650Z,9252.00
2018-04-29T12:19:59.684Z,8004.00
2018-04-29T12:20:59.662Z,7992.00
2018-04-29T12:21:59.664Z,8896.00
2018-04-29T12:22:59.668Z,10700.00
2018-04-29T12:23:59.683Z,11360.00
2018-04-29T12:24:59.680Z,11364.00
2018-04-29T12:25:59.679Z,10396.00
2018-04-29T12:26:59.695Z,9376.00